Terminal Aerodrome Forecast
Issued by NWS

Home | Current Version | Previous Version | Text Only | Print | Product List | Glossary On
Versions: 1 2 3 4 5 6 7 8 9 10 11 12
430
FTUS46 KSTO 011724
TAFSAC
TAF
KSAC 011724Z 0118/0218 36006KT P6SM SKC
     FM012300 29007KT P6SM SKC
     FM020300 23005KT P6SM SKC
     FM020800 15005KT P6SM SKC=

USA.gov is the U.S. government's official web portal to all federal, state and local government web resources and services.